Merelbeke, Belgium
Current Conditions -  °F | °C
As of 5:25 AM on Saturday 29 Nov 2014 (Local Time) from EBCV Reporting Station
Clear Clear  
Wind Chill: 37°   Ceiling: Unl
Heat Index: 37°   Visibility: 3mi
Dew Point: 36°   Wind: 3mph
Humidity: 93%   Direction: 90°E
Pressure: 29.83"   Gusts: NA
Location:  50.99°N, 3.75°E
Report Text: EBCV 290425Z AUTO 09003KT 5000 NCD 03/02 Q1010 WHT
Loading
Personal Weather Stations






























Interactive Weather Map New forecast layout! Learn more

10-Day Weather Forecast

Advertisements
Track Severe Weather on mobile